createdAt,value
2022-11-29T00:02:22.652Z,101406.97
2022-11-29T00:04:52.215Z,101406.25
2022-11-29T00:07:20.299Z,101407.56
2022-11-29T00:09:48.368Z,101405.53
2022-11-29T00:12:16.458Z,101410.56
2022-11-29T00:14:44.773Z,101413.72
2022-11-29T00:17:12.956Z,101420.63
2022-11-29T00:19:41.180Z,101422.66
2022-11-29T00:22:10.584Z,101420.25
2022-11-29T00:24:38.637Z,101421.00
2022-11-29T00:27:06.769Z,101423.69
2022-11-29T00:29:34.801Z,101424.06
2022-11-29T00:32:03.138Z,101422.66
2022-11-29T00:34:31.355Z,101428.19
2022-11-29T00:36:59.496Z,101433.69
2022-11-29T00:39:28.994Z,101425.41
2022-11-29T00:41:57.010Z,101430.81
2022-11-29T00:44:25.237Z,101430.25
2022-11-29T00:46:53.276Z,101443.75
2022-11-29T00:49:21.348Z,101432.50
2022-11-29T00:51:49.574Z,101429.25
2022-11-29T00:54:18.813Z,101438.63
2022-11-29T00:56:48.236Z,101435.41
2022-11-29T00:59:16.306Z,101438.28
2022-11-29T01:01:44.378Z,101435.56
2022-11-29T01:04:12.641Z,101437.25
2022-11-29T01:06:40.634Z,101440.59
2022-11-29T01:09:08.700Z,101451.06
2022-11-29T01:11:37.137Z,101446.00
2022-11-29T01:14:06.608Z,101444.63
2022-11-29T01:16:35.058Z,101437.34
2022-11-29T01:19:03.937Z,101453.09
2022-11-29T01:21:32.139Z,101449.38
2022-11-29T01:24:01.045Z,101449.38
2022-11-29T01:26:30.894Z,101450.88
2022-11-29T01:28:59.877Z,101464.19
2022-11-29T01:31:31.420Z,101462.78
2022-11-29T01:34:01.460Z,101464.88
2022-11-29T01:36:29.625Z,101469.41
2022-11-29T01:39:00.669Z,101475.00
2022-11-29T01:41:29.388Z,101476.38
2022-11-29T01:44:02.345Z,101471.28
2022-11-29T01:46:34.281Z,101485.44
2022-11-29T01:49:06.553Z,101491.03
2022-11-29T01:51:37.128Z,101488.16
2022-11-29T01:54:06.484Z,101490.03
2022-11-29T01:56:35.803Z,101488.53
2022-11-29T01:59:07.360Z,101491.69
2022-11-29T02:01:37.810Z,101499.63
2022-11-29T02:04:07.082Z,101502.69
2022-11-29T02:06:36.614Z,101501.00
2022-11-29T02:09:04.860Z,101506.94
2022-11-29T02:12:01.405Z,101514.13
2022-11-29T02:14:52.627Z,101512.56
2022-11-29T02:17:30.782Z,101516.63
2022-11-29T02:20:35.947Z,101521.41
2022-11-29T02:23:24.642Z,101524.81
2022-11-29T02:26:04.625Z,101537.84
2022-11-29T02:29:04.661Z,101543.06
2022-11-29T02:32:07.988Z,101545.47
2022-11-29T02:34:55.066Z,101549.19
2022-11-29T02:37:45.197Z,101547.22
2022-11-29T02:40:31.723Z,101552.31
2022-11-29T02:43:20.498Z,101559.75
2022-11-29T02:46:04.529Z,101559.34
2022-11-29T02:48:52.782Z,101561.38
2022-11-29T02:51:29.471Z,101562.69
2022-11-29T02:54:02.753Z,101572.84
2022-11-29T02:56:38.700Z,101571.66
2022-11-29T02:59:12.740Z,101570.16
2022-11-29T03:01:53.320Z,101577.59
2022-11-29T03:04:32.533Z,101576.91
2022-11-29T03:07:08.288Z,101581.97
2022-11-29T03:09:45.120Z,101587.66
2022-11-29T03:12:21.939Z,101590.78
2022-11-29T03:14:58.569Z,101597.84
2022-11-29T03:17:43.222Z,101597.59
2022-11-29T03:20:29.687Z,101602.34
2022-11-29T03:23:14.959Z,101607.56
2022-11-29T03:25:47.378Z,101609.44
2022-11-29T03:28:20.338Z,101610.31
2022-11-29T03:30:57.178Z,101616.50
2022-11-29T03:33:33.046Z,101616.91
2022-11-29T03:36:09.767Z,101630.28
2022-11-29T03:38:41.774Z,101636.56
2022-11-29T03:41:21.017Z,101631.78
2022-11-29T03:43:56.189Z,101641.91
2022-11-29T03:46:30.532Z,101640.56
2022-11-29T03:49:04.513Z,101645.13
2022-11-29T03:51:48.016Z,101646.84
2022-11-29T03:54:22.323Z,101648.16
2022-11-29T03:56:51.071Z,101649.88
2022-11-29T03:59:52.534Z,101654.06
2022-11-29T04:02:47.637Z,101656.09
2022-11-29T04:05:29.325Z,101661.84
2022-11-29T04:08:12.661Z,101667.38
2022-11-29T04:11:07.245Z,101668.03
2022-11-29T04:14:05.888Z,101674.25
2022-11-29T04:17:20.405Z,101661.44
2022-11-29T04:20:09.439Z,101668.56
2022-11-29T04:23:08.241Z,101671.66
2022-11-29T04:25:49.808Z,101669.25
2022-11-29T04:28:53.962Z,101669.59
2022-11-29T04:31:36.271Z,101670.59
2022-11-29T04:34:24.631Z,101677.00
2022-11-29T04:37:15.754Z,101687.66
2022-11-29T04:39:58.533Z,101681.91
2022-11-29T04:42:40.134Z,101689.47
2022-11-29T04:45:36.471Z,101694.72
2022-11-29T04:48:20.363Z,101690.81
2022-11-29T04:51:00.683Z,101698.63
2022-11-29T04:53:39.960Z,101694.91
2022-11-29T04:56:16.313Z,101697.81
2022-11-29T04:58:51.920Z,101697.00
2022-11-29T05:01:31.203Z,101705.56
2022-11-29T05:04:05.679Z,101708.44
2022-11-29T05:06:40.027Z,101712.16
2022-11-29T05:09:17.955Z,101706.44
2022-11-29T05:11:59.779Z,101714.19
2022-11-29T05:14:42.336Z,101720.94
2022-11-29T05:17:27.105Z,101716.75
2022-11-29T05:20:05.402Z,101727.00
2022-11-29T05:22:41.520Z,101723.47
2022-11-29T05:25:29.010Z,101727.88
2022-11-29T05:28:05.699Z,101728.88
2022-11-29T05:30:56.950Z,101730.75
2022-11-29T05:33:46.048Z,101733.78
2022-11-29T05:36:25.605Z,101741.84
2022-11-29T05:39:21.650Z,101738.84
2022-11-29T05:42:04.859Z,101740.50
2022-11-29T05:44:38.361Z,101752.16
2022-11-29T05:47:10.095Z,101750.31
2022-11-29T05:49:45.492Z,101747.94
2022-11-29T05:52:25.349Z,101748.94
2022-11-29T05:55:18.146Z,101752.16
2022-11-29T05:57:54.132Z,101761.44
2022-11-29T06:00:23.329Z,101767.00
2022-11-29T06:03:00.105Z,101756.88
2022-11-29T06:05:37.003Z,101769.53
2022-11-29T06:08:12.156Z,101775.78
2022-11-29T06:10:42.714Z,101771.88
2022-11-29T06:13:21.946Z,101765.66
2022-11-29T06:16:19.250Z,101772.22
2022-11-29T06:19:20.805Z,101776.44
2022-11-29T06:21:59.497Z,101777.63
2022-11-29T06:24:42.676Z,101780.97
2022-11-29T06:27:26.768Z,101779.47
2022-11-29T06:30:03.247Z,101790.09
2022-11-29T06:32:40.245Z,101798.38
2022-11-29T06:35:12.775Z,101798.88
2022-11-29T06:37:47.466Z,101809.16
2022-11-29T06:40:17.169Z,101813.22
2022-11-29T06:42:45.676Z,101814.03
2022-11-29T06:45:15.644Z,101816.06
2022-11-29T06:47:45.588Z,101821.31
2022-11-29T06:50:34.312Z,101813.69
2022-11-29T06:53:10.450Z,101809.16
2022-11-29T06:55:48.418Z,101818.59
2022-11-29T06:59:31.264Z,101824.34
2022-11-29T07:02:05.868Z,101818.75
2022-11-29T07:04:51.732Z,101830.44
2022-11-29T07:07:22.333Z,101829.88
2022-11-29T07:09:56.950Z,101831.25
2022-11-29T07:12:25.803Z,101842.72
2022-11-29T07:14:54.609Z,101849.81
2022-11-29T07:17:28.775Z,101847.09
2022-11-29T07:20:08.047Z,101850.16
2022-11-29T07:22:49.415Z,101852.16
2022-11-29T07:25:28.362Z,101864.00
2022-11-29T07:28:05.682Z,101865.31
2022-11-29T07:30:43.322Z,101872.41
2022-11-29T07:33:20.309Z,101872.09
2022-11-29T07:35:56.979Z,101878.13
2022-11-29T07:38:34.802Z,101880.00
2022-11-29T07:41:13.034Z,101882.88
2022-11-29T07:43:48.696Z,101883.88
2022-11-29T07:46:16.775Z,101879.16
2022-11-29T07:48:44.830Z,101889.25
2022-11-29T07:51:12.854Z,101899.72
2022-11-29T07:53:44.419Z,101905.28
2022-11-29T07:56:16.244Z,101900.25
2022-11-29T07:58:44.341Z,101900.75
2022-11-29T08:01:12.821Z,101914.09
2022-11-29T08:03:42.636Z,101911.72
2022-11-29T08:06:10.747Z,101910.38
2022-11-29T08:08:43.686Z,101912.38
2022-11-29T08:11:15.948Z,101921.66
2022-11-29T08:13:44.293Z,101924.34
2022-11-29T08:16:17.809Z,101931.28
2022-11-29T08:18:45.980Z,101931.97
2022-11-29T08:21:17.995Z,101932.44
2022-11-29T08:23:46.206Z,101934.16
2022-11-29T08:26:18.461Z,101945.28
2022-11-29T08:28:46.390Z,101938.88
2022-11-29T08:31:15.011Z,101945.28
2022-11-29T08:33:44.372Z,101945.28
2022-11-29T08:36:15.103Z,101953.06
2022-11-29T08:38:43.264Z,101956.09
2022-11-29T08:41:14.413Z,101962.16
2022-11-29T08:43:44.218Z,101964.19
2022-11-29T08:46:17.956Z,101967.88
2022-11-29T08:48:46.922Z,101968.06
2022-11-29T08:51:15.197Z,101967.56
2022-11-29T08:53:42.221Z,101972.28
2022-11-29T08:56:59.644Z,101974.13
2022-11-29T08:59:01.410Z,101974.66
2022-11-29T09:01:30.113Z,101968.56
2022-11-29T09:04:02.870Z,101977.84
2022-11-29T09:06:32.952Z,101969.75
2022-11-29T09:09:02.144Z,101972.59
2022-11-29T09:11:31.155Z,101970.78
2022-11-29T09:14:02.996Z,101973.97
2022-11-29T09:16:34.378Z,101974.81
2022-11-29T09:19:02.654Z,101974.97
2022-11-29T09:21:32.390Z,101972.59
2022-11-29T09:24:01.127Z,101975.84
2022-11-29T09:26:30.438Z,101965.38
2022-11-29T09:29:01.210Z,101964.00
2022-11-29T09:31:31.472Z,101957.63
2022-11-29T09:33:59.742Z,101956.41
2022-11-29T09:36:29.197Z,101952.84
2022-11-29T09:38:59.675Z,101959.97
2022-11-29T09:41:57.270Z,101958.09
2022-11-29T09:44:34.167Z,101970.06
2022-11-29T09:47:20.391Z,101984.22
2022-11-29T09:50:17.698Z,101992.16
2022-11-29T09:52:53.047Z,102000.09
2022-11-29T09:55:47.084Z,102002.94
2022-11-29T09:58:18.621Z,102002.94
2022-11-29T10:00:50.331Z,102012.75
2022-11-29T10:03:26.359Z,102020.13
2022-11-29T10:05:59.346Z,102028.94
2022-11-29T10:08:34.309Z,102027.25
2022-11-29T10:11:15.471Z,102033.81
2022-11-29T10:13:46.234Z,102036.03
2022-11-29T10:16:21.784Z,102033.00
2022-11-29T10:19:41.324Z,102036.72
2022-11-29T10:22:18.117Z,102033.00
2022-11-29T10:24:49.838Z,102032.31
2022-11-29T10:27:23.743Z,102036.38
2022-11-29T10:29:52.311Z,102038.41
2022-11-29T10:32:24.749Z,102042.78
2022-11-29T10:34:57.532Z,102041.09
2022-11-29T10:38:30.413Z,102041.13
2022-11-29T10:41:07.656Z,102036.75
2022-11-29T10:43:37.336Z,102042.16
2022-11-29T10:46:07.582Z,102038.44
2022-11-29T10:48:35.866Z,102036.59
2022-11-29T10:51:16.195Z,102025.63
2022-11-29T10:53:45.879Z,102029.00
2022-11-29T10:56:25.108Z,102027.81
2022-11-29T10:58:58.999Z,102031.72
2022-11-29T11:01:29.164Z,102023.97
2022-11-29T11:04:31.245Z,102036.09
2022-11-29T11:07:02.353Z,102030.00
2022-11-29T11:09:57.624Z,102034.75
2022-11-29T11:12:29.024Z,102030.00
2022-11-29T11:15:16.827Z,102035.59
2022-11-29T11:17:57.045Z,102040.47
2022-11-29T11:20:30.205Z,102041.84
2022-11-29T11:23:05.358Z,102047.03
2022-11-29T11:25:35.650Z,102051.59
2022-11-29T11:28:18.156Z,102057.50
2022-11-29T11:30:52.655Z,102056.66
2022-11-29T11:33:22.812Z,102058.19
2022-11-29T11:36:10.953Z,102055.31
2022-11-29T11:38:43.049Z,102056.00
2022-11-29T11:41:19.984Z,102046.91
2022-11-29T11:43:58.492Z,102040.66
2022-11-29T11:46:47.808Z,102042.19
2022-11-29T11:49:26.704Z,102038.47
2022-11-29T11:51:54.893Z,102037.13
2022-11-29T11:54:24.468Z,102036.59
2022-11-29T11:56:53.564Z,102036.44
2022-11-29T11:59:26.380Z,102037.13
2022-11-29T12:01:54.559Z,102034.94
2022-11-29T12:04:26.361Z,102039.66
2022-11-29T12:08:07.229Z,102032.22
2022-11-29T12:10:36.070Z,102036.25
2022-11-29T12:13:03.959Z,102033.75
2022-11-29T12:15:38.228Z,102032.38
2022-11-29T12:18:12.585Z,102028.50
2022-11-29T12:20:45.373Z,102030.03
2022-11-29T12:23:36.579Z,102029.38
2022-11-29T12:26:07.678Z,102034.78
2022-11-29T12:28:40.413Z,102045.25
2022-11-29T12:31:25.503Z,102039.50
2022-11-29T12:34:04.202Z,102036.59
2022-11-29T12:36:41.652Z,102036.78
2022-11-29T12:39:40.852Z,102033.06
2022-11-29T12:42:18.623Z,102035.75
2022-11-29T12:44:55.840Z,102033.56
2022-11-29T12:47:36.769Z,102033.75
2022-11-29T12:50:21.679Z,102031.72
2022-11-29T12:53:01.344Z,102036.06
2022-11-29T12:55:37.409Z,102038.09
2022-11-29T12:58:15.210Z,102026.97
2022-11-29T13:00:51.359Z,102028.31
2022-11-29T13:03:27.393Z,102025.78
2022-11-29T13:06:08.386Z,102034.91
2022-11-29T13:08:52.224Z,102034.22
2022-11-29T13:11:24.754Z,102049.94
2022-11-29T13:14:19.832Z,102048.91
2022-11-29T13:16:56.224Z,102051.97
2022-11-29T13:19:34.592Z,102054.13
2022-11-29T13:22:11.287Z,102046.53
2022-11-29T13:24:44.226Z,102050.41
2022-11-29T13:27:19.788Z,102050.59
2022-11-29T13:29:50.165Z,102053.31
2022-11-29T13:32:37.346Z,102057.84
2022-11-29T13:35:13.746Z,102052.28
2022-11-29T13:37:54.772Z,102059.34
2022-11-29T13:40:31.703Z,102058.69
2022-11-29T13:43:06.377Z,102062.72
2022-11-29T13:45:43.335Z,102054.97
2022-11-29T13:48:34.724Z,102064.59
2022-11-29T13:51:23.791Z,102067.09
2022-11-29T13:53:52.710Z,102062.38
2022-11-29T13:56:32.845Z,102061.19
2022-11-29T13:59:02.186Z,102063.03
2022-11-29T14:01:45.331Z,102071.16
2022-11-29T14:04:26.229Z,102077.25
2022-11-29T14:07:04.986Z,102066.94
2022-11-29T14:09:37.479Z,102069.47
2022-11-29T14:12:18.890Z,102074.69
2022-11-29T14:14:53.180Z,102071.84
2022-11-29T14:17:46.573Z,102073.53
2022-11-29T14:20:45.676Z,102060.03
2022-11-29T14:23:30.776Z,102058.84
2022-11-29T14:26:32.401Z,102064.94
2022-11-29T14:29:01.464Z,102066.78
2022-11-29T14:31:54.529Z,102072.19
2022-11-29T14:34:43.180Z,102069.66
2022-11-29T14:37:36.476Z,102074.22
2022-11-29T14:40:18.760Z,102071.84
2022-11-29T14:42:48.804Z,102074.03
2022-11-29T14:45:26.772Z,102073.19
2022-11-29T14:47:54.983Z,102071.19
2022-11-29T14:50:34.779Z,102070.16
2022-11-29T14:53:04.486Z,102063.75
2022-11-29T14:55:36.594Z,102065.63
2022-11-29T14:58:22.674Z,102063.06
2022-11-29T15:01:09.962Z,102056.16
2022-11-29T15:03:46.833Z,102055.31
2022-11-29T15:06:24.098Z,102059.69
2022-11-29T15:08:58.699Z,102068.50
2022-11-29T15:11:49.518Z,102061.69
2022-11-29T15:14:27.407Z,102064.25
2022-11-29T15:17:17.068Z,102068.97
2022-11-29T15:20:11.328Z,102066.47
2022-11-29T15:22:49.183Z,102071.88
2022-11-29T15:25:21.791Z,102081.28
2022-11-29T15:27:54.490Z,102073.22
2022-11-29T15:30:29.580Z,102084.84
2022-11-29T15:32:58.778Z,102082.00
2022-11-29T15:35:26.963Z,102093.28
2022-11-29T15:37:57.390Z,102087.72
2022-11-29T15:40:31.489Z,102098.34
2022-11-29T15:43:12.804Z,102102.91
2022-11-29T15:45:41.284Z,102104.59
2022-11-29T15:48:16.703Z,102100.06
2022-11-29T15:50:53.180Z,102098.19
2022-11-29T15:53:27.366Z,102100.06
2022-11-29T15:55:59.385Z,102101.75
2022-11-29T15:58:29.676Z,102097.03
2022-11-29T16:00:59.370Z,102099.25
2022-11-29T16:03:30.911Z,102097.53
2022-11-29T16:06:06.987Z,102094.81
2022-11-29T16:08:42.650Z,102102.94
2022-11-29T16:11:17.025Z,102095.19
2022-11-29T16:14:02.349Z,102085.06
2022-11-29T16:16:32.802Z,102093.84
2022-11-29T16:19:11.637Z,102099.25
2022-11-29T16:21:40.030Z,102097.19
2022-11-29T16:24:22.026Z,102110.53
2022-11-29T16:26:52.031Z,102103.97
2022-11-29T16:29:24.515Z,102107.00
2022-11-29T16:31:53.519Z,102100.91
2022-11-29T16:34:27.182Z,102105.97
2022-11-29T16:37:03.781Z,102105.97
2022-11-29T16:39:35.421Z,102101.63
2022-11-29T16:42:08.328Z,102102.31
2022-11-29T16:44:55.693Z,102096.72
2022-11-29T16:47:26.045Z,102092.69
2022-11-29T16:50:17.276Z,102096.22
2022-11-29T16:52:45.645Z,102102.81
2022-11-29T16:55:16.162Z,102101.97
2022-11-29T16:57:45.211Z,102099.91
2022-11-29T17:00:24.435Z,102096.03
2022-11-29T17:02:52.564Z,102108.38
2022-11-29T17:05:20.616Z,102107.53
2022-11-29T17:07:49.435Z,102105.50
2022-11-29T17:10:22.041Z,102100.78
2022-11-29T17:12:50.430Z,102108.69
2022-11-29T17:15:18.553Z,102121.22
2022-11-29T17:17:47.793Z,102121.22
2022-11-29T17:20:16.061Z,102122.91
2022-11-29T17:22:44.158Z,102124.75
2022-11-29T17:25:12.336Z,102127.28
2022-11-29T17:27:41.776Z,102128.78
2022-11-29T17:30:11.448Z,102128.66
2022-11-29T17:32:39.597Z,102140.44
2022-11-29T17:35:08.279Z,102123.94
2022-11-29T17:37:36.503Z,102130.69
2022-11-29T17:40:04.920Z,102129.84
2022-11-29T17:42:33.038Z,102133.38
2022-11-29T17:45:02.467Z,102137.94
2022-11-29T17:47:30.731Z,102140.31
2022-11-29T17:49:59.134Z,102139.97
2022-11-29T17:52:27.214Z,102150.63
2022-11-29T17:54:55.294Z,102148.25
2022-11-29T17:57:23.621Z,102158.72
2022-11-29T17:59:51.701Z,102152.63
2022-11-29T18:02:21.181Z,102154.66
2022-11-29T18:05:14.427Z,102156.88
2022-11-29T18:07:58.140Z,102152.31
2022-11-29T18:10:27.702Z,102153.00
2022-11-29T18:12:55.771Z,102145.56
2022-11-29T18:15:23.909Z,102138.44
2022-11-29T18:17:53.586Z,102151.81
2022-11-29T18:20:21.691Z,102152.31
2022-11-29T18:22:49.845Z,102148.75
2022-11-29T18:25:38.015Z,102147.25
2022-11-29T18:28:08.459Z,102139.47
2022-11-29T18:30:36.753Z,102145.56
2022-11-29T18:33:06.225Z,102145.88
2022-11-29T18:35:34.374Z,102156.03
2022-11-29T18:38:17.858Z,102154.31
2022-11-29T18:40:46.563Z,102164.13
2022-11-29T18:43:17.297Z,102163.59
2022-11-29T18:45:45.501Z,102157.91
2022-11-29T18:48:15.001Z,102165.47
2022-11-29T18:50:43.150Z,102165.81
2022-11-29T18:53:11.301Z,102169.19
2022-11-29T18:55:39.597Z,102177.13
2022-11-29T18:58:08.268Z,102176.47
2022-11-29T19:00:36.415Z,102183.53
2022-11-29T19:03:04.612Z,102182.34
2022-11-29T19:05:34.305Z,102182.34
2022-11-29T19:08:02.464Z,102185.75
2022-11-29T19:10:30.689Z,102191.50
2022-11-29T19:12:58.764Z,102187.91
2022-11-29T19:15:26.784Z,102198.25
2022-11-29T19:17:54.958Z,102196.00
2022-11-29T19:20:23.149Z,102191.63
2022-11-29T19:23:00.176Z,102191.63
2022-11-29T19:25:28.648Z,102191.31
2022-11-29T19:27:57.179Z,102198.69
2022-11-29T19:30:25.405Z,102208.84
2022-11-29T19:32:53.747Z,102201.25
2022-11-29T19:35:21.808Z,102202.94
2022-11-29T19:37:50.085Z,102200.22
2022-11-29T19:40:20.115Z,102204.28
2022-11-29T19:42:48.596Z,102194.81
2022-11-29T19:45:18.183Z,102213.91
2022-11-29T19:47:46.714Z,102197.53
2022-11-29T19:50:14.950Z,102194.16
2022-11-29T19:52:43.320Z,102197.53
2022-11-29T19:55:11.510Z,102211.38
2022-11-29T19:57:40.985Z,102202.59
2022-11-29T20:00:10.303Z,102205.63
2022-11-29T20:02:42.612Z,102214.63
2022-11-29T20:05:12.003Z,102208.66
2022-11-29T20:07:40.139Z,102214.41
2022-11-29T20:10:09.176Z,102196.53
2022-11-29T20:12:37.436Z,102205.00
2022-11-29T20:15:08.792Z,102196.91
2022-11-29T20:17:38.015Z,102196.91
2022-11-29T20:20:07.462Z,102198.56
2022-11-29T20:22:35.754Z,102200.25
2022-11-29T20:25:04.157Z,102198.94
2022-11-29T20:27:32.630Z,102205.16
2022-11-29T20:30:00.785Z,102210.72
2022-11-29T20:32:33.767Z,102202.44
2022-11-29T20:35:02.688Z,102206.84
2022-11-29T20:37:49.499Z,102203.81
2022-11-29T20:40:21.066Z,102201.13
2022-11-29T20:43:06.162Z,102202.94
2022-11-29T20:45:34.899Z,102222.53
2022-11-29T20:48:13.289Z,102213.94
2022-11-29T20:50:44.165Z,102214.78
2022-11-29T20:53:32.640Z,102222.56
2022-11-29T20:56:01.573Z,102227.94
2022-11-29T20:58:29.797Z,102228.44
2022-11-29T21:01:02.175Z,102221.72
2022-11-29T21:03:32.246Z,102228.97
2022-11-29T21:06:03.702Z,102231.00
2022-11-29T21:08:32.027Z,102227.97
2022-11-29T21:11:03.714Z,102222.22
2022-11-29T21:13:32.457Z,102213.28
2022-11-29T21:16:01.677Z,102217.00
2022-11-29T21:18:32.771Z,102219.53
2022-11-29T21:21:09.620Z,102217.00
2022-11-29T21:23:50.433Z,102213.28
2022-11-29T21:26:24.265Z,102214.97
2022-11-29T21:29:00.997Z,102217.00
2022-11-29T21:31:29.667Z,102214.97
2022-11-29T21:33:59.792Z,102218.19
2022-11-29T21:36:28.226Z,102215.50
2022-11-29T21:38:58.740Z,102220.38
2022-11-29T21:41:29.039Z,102221.56
2022-11-29T21:44:12.555Z,102228.16
2022-11-29T21:46:40.729Z,102224.94
2022-11-29T21:49:10.172Z,102219.72
2022-11-29T21:51:39.488Z,102224.25
2022-11-29T21:54:07.619Z,102214.31
2022-11-29T21:56:35.674Z,102223.41
2022-11-29T21:59:03.861Z,102222.25
2022-11-29T22:01:33.831Z,102233.38
2022-11-29T22:04:05.660Z,102227.97
2022-11-29T22:06:36.754Z,102237.13
2022-11-29T22:09:07.660Z,102234.22
2022-11-29T22:11:36.207Z,102228.69
2022-11-29T22:14:16.183Z,102241.69
2022-11-29T22:16:45.798Z,102233.56
2022-11-29T22:19:15.374Z,102241.00
2022-11-29T22:21:46.624Z,102229.00
2022-11-29T22:24:15.207Z,102225.97
2022-11-29T22:26:43.734Z,102235.59
2022-11-29T22:29:13.956Z,102234.06
2022-11-29T22:31:42.767Z,102235.28
2022-11-29T22:34:11.813Z,102238.13
2022-11-29T22:36:40.851Z,102249.97
2022-11-29T22:39:10.303Z,102236.59
2022-11-29T22:41:39.590Z,102243.53
2022-11-29T22:44:08.420Z,102254.34
2022-11-29T22:46:40.735Z,102254.00
2022-11-29T22:49:09.405Z,102255.00
2022-11-29T22:51:38.820Z,102246.56
2022-11-29T22:54:09.474Z,102250.63
2022-11-29T22:56:40.829Z,102250.63
2022-11-29T22:59:09.195Z,102253.50
2022-11-29T23:01:38.865Z,102248.63
2022-11-29T23:04:35.046Z,102262.44
2022-11-29T23:07:03.288Z,102247.09
2022-11-29T23:09:31.457Z,102252.66
2022-11-29T23:12:00.880Z,102261.47
2022-11-29T23:14:29.056Z,102247.09
2022-11-29T23:16:57.114Z,102241.84
2022-11-29T23:19:25.218Z,102243.53
2022-11-29T23:21:56.575Z,102242.53
2022-11-29T23:24:24.415Z,102244.06
2022-11-29T23:26:52.531Z,102244.22
2022-11-29T23:29:21.995Z,102243.53
2022-11-29T23:31:50.515Z,102234.44
2022-11-29T23:34:18.669Z,102226.66
2022-11-29T23:36:51.329Z,102231.88
2022-11-29T23:39:20.871Z,102232.38
2022-11-29T23:41:48.976Z,102236.28
2022-11-29T23:44:16.974Z,102236.78
2022-11-29T23:46:46.572Z,102233.91
2022-11-29T23:49:14.734Z,102246.75
2022-11-29T23:51:42.835Z,102235.25
2022-11-29T23:54:10.903Z,102244.38
2022-11-29T23:56:38.983Z,102232.38
2022-11-29T23:59:07.220Z,102220.22
